createdAt,value
2016-08-24T00:00:34.121Z,61.48
2016-08-24T00:01:34.159Z,61.1
2016-08-24T00:02:34.885Z,61.38
2016-08-24T00:03:34.217Z,61.48
2016-08-24T00:04:34.938Z,61.38
2016-08-24T00:05:34.963Z,61.29
2016-08-24T00:06:35.008Z,61.48
2016-08-24T00:07:35.015Z,61.29
2016-08-24T00:08:35.041Z,61.19
2016-08-24T00:09:35.090Z,60.9
2016-08-24T00:10:34.387Z,61.48
2016-08-24T00:11:34.410Z,61
2016-08-24T00:12:35.150Z,61.58
2016-08-24T00:13:34.465Z,61.77
2016-08-24T00:14:35.199Z,61.1
2016-08-24T00:15:35.229Z,61.29
2016-08-24T00:16:35.254Z,61.19
2016-08-24T00:17:34.571Z,61.29
2016-08-24T00:18:35.306Z,61.29
2016-08-24T00:19:34.623Z,61.29
2016-08-24T00:20:34.650Z,61
2016-08-24T00:21:34.676Z,61.48
2016-08-24T00:22:35.411Z,61.29
2016-08-24T00:23:35.448Z,61.48
2016-08-24T00:24:35.464Z,61.74
2016-08-24T00:25:34.778Z,61.55
2016-08-24T00:26:34.819Z,62.12
2016-08-24T00:27:34.834Z,61.65
2016-08-24T00:28:35.576Z,61.38
2016-08-24T00:29:35.596Z,61.45
2016-08-24T00:30:35.625Z,61.83
2016-08-24T00:31:34.942Z,61.83
2016-08-24T00:32:34.965Z,62.12
2016-08-24T00:33:35.700Z,62.22
2016-08-24T00:34:35.037Z,61.74
2016-08-24T00:35:35.754Z,62.12
2016-08-24T00:36:35.068Z,61.74
2016-08-24T00:37:35.096Z,62.03
2016-08-24T00:38:35.123Z,62.03
2016-08-24T00:39:35.147Z,62.12
2016-08-24T00:40:35.893Z,62.32
2016-08-24T00:41:35.911Z,62.03
2016-08-24T00:42:35.937Z,62.32
2016-08-24T00:43:35.269Z,62.51
2016-08-24T00:44:35.280Z,62.41
2016-08-24T00:45:36.015Z,62.03
2016-08-24T00:46:35.333Z,61.74
2016-08-24T00:47:36.067Z,62.12
2016-08-24T00:48:35.917Z,62.22
2016-08-24T00:49:36.131Z,61.93
2016-08-24T00:50:36.147Z,61.83
2016-08-24T00:51:35.463Z,62.32
2016-08-24T00:52:35.491Z,62.32
2016-08-24T00:53:36.226Z,61.65
2016-08-24T00:54:35.543Z,62.12
2016-08-24T00:55:35.568Z,61.74
2016-08-24T00:56:35.595Z,62.6
2016-08-24T00:57:36.331Z,62.03
2016-08-24T00:58:35.645Z,62.03
2016-08-24T00:59:35.673Z,62.41
2016-08-24T01:00:36.410Z,62.22
2016-08-24T01:01:36.438Z,62.32
2016-08-24T01:02:35.757Z,62.22
2016-08-24T01:03:35.781Z,62.41
2016-08-24T01:04:36.514Z,62.22
2016-08-24T01:05:35.834Z,62.22
2016-08-24T01:06:35.859Z,62.41
2016-08-24T01:07:36.603Z,62.6
2016-08-24T01:08:35.910Z,62.57
2016-08-24T01:09:35.933Z,62.38
2016-08-24T01:10:35.959Z,61.93
2016-08-24T01:11:36.698Z,62.22
2016-08-24T01:12:36.021Z,62.29
2016-08-24T01:13:36.053Z,62.48
2016-08-24T01:14:36.064Z,62.51
2016-08-24T01:15:36.090Z,62.19
2016-08-24T01:16:36.827Z,62.19
2016-08-24T01:17:36.142Z,62.19
2016-08-24T01:18:36.885Z,62.19
2016-08-24T01:19:36.201Z,61.9
2016-08-24T01:20:36.218Z,62.19
2016-08-24T01:21:36.274Z,62.67
2016-08-24T01:22:36.279Z,62.96
2016-08-24T01:23:37.006Z,62.77
2016-08-24T01:24:36.334Z,62.48
2016-08-24T01:25:37.063Z,62.96
2016-08-24T01:26:37.086Z,62.87
2016-08-24T01:27:37.118Z,63.06
2016-08-24T01:28:37.146Z,62.87
2016-08-24T01:29:36.466Z,62.87
2016-08-24T01:30:37.191Z,62.87
2016-08-24T01:31:37.220Z,62.87
2016-08-24T01:32:36.533Z,62.38
2016-08-24T01:33:36.589Z,62.87
2016-08-24T01:34:36.582Z,62.48
2016-08-24T01:35:36.624Z,62.48
2016-08-24T01:36:37.349Z,62.87
2016-08-24T01:37:37.372Z,62.57
2016-08-24T01:38:36.693Z,63.44
2016-08-24T01:39:37.423Z,63.34
2016-08-24T01:40:37.450Z,63.15
2016-08-24T01:41:36.774Z,63.15
2016-08-24T01:42:36.789Z,63.25
2016-08-24T01:43:37.536Z,62.77
2016-08-24T01:44:37.559Z,63.31
2016-08-24T01:45:36.866Z,63.99
2016-08-24T01:46:37.605Z,63.79
2016-08-24T01:47:36.919Z,64.18
2016-08-24T01:48:36.953Z,63.12
2016-08-24T01:49:37.718Z,63.02
2016-08-24T01:50:36.997Z,63.12
2016-08-24T01:51:37.749Z,63.41
2016-08-24T01:52:37.072Z,63.22
2016-08-24T01:53:37.785Z,63.31
2016-08-24T01:54:37.101Z,63.22
2016-08-24T01:55:37.129Z,63.6
2016-08-24T01:56:37.354Z,63.6
2016-08-24T01:57:37.180Z,63.02
2016-08-24T01:58:37.205Z,63.02
2016-08-24T01:59:37.230Z,63.12
2016-08-24T02:00:37.971Z,63.02
2016-08-24T02:01:37.989Z,63.12
2016-08-24T02:02:38.015Z,63.22
2016-08-24T02:03:37.333Z,63.02
2016-08-24T02:04:37.360Z,63.02
2016-08-24T02:05:38.095Z,63.7
2016-08-24T02:06:37.410Z,63.12
2016-08-24T02:07:37.436Z,63.02
2016-08-24T02:08:38.201Z,63.02
2016-08-24T02:09:38.199Z,63.41
2016-08-24T02:10:38.221Z,63.89
2016-08-24T02:11:37.540Z,63.99
2016-08-24T02:12:38.277Z,63.7
2016-08-24T02:13:38.301Z,63.31
2016-08-24T02:14:38.326Z,63.22
2016-08-24T02:15:37.650Z,63.12
2016-08-24T02:16:38.376Z,63.22
2016-08-24T02:17:37.703Z,63.31
2016-08-24T02:18:37.719Z,63.02
2016-08-24T02:19:38.486Z,63.79
2016-08-24T02:20:37.771Z,63.51
2016-08-24T02:21:37.796Z,63.7
2016-08-24T02:22:38.530Z,63.79
2016-08-24T02:23:38.565Z,63.6
2016-08-24T02:24:38.589Z,63.31
2016-08-24T02:25:38.622Z,63.79
2016-08-24T02:26:37.924Z,63.79
2016-08-24T02:27:38.662Z,63.7
2016-08-24T02:28:38.684Z,63.7
2016-08-24T02:29:37.999Z,63.6
2016-08-24T02:30:38.024Z,63.79
2016-08-24T02:31:38.050Z,64.08
2016-08-24T02:32:38.080Z,64.18
2016-08-24T02:33:38.813Z,63.89
2016-08-24T02:34:38.837Z,64.08
2016-08-24T02:35:38.152Z,63.99
2016-08-24T02:36:38.910Z,63.79
2016-08-24T02:37:38.915Z,63.89
2016-08-24T02:38:38.939Z,63.95
2016-08-24T02:39:38.966Z,63.86
2016-08-24T02:40:38.282Z,64.08
2016-08-24T02:41:38.309Z,64.28
2016-08-24T02:42:38.385Z,63.79
2016-08-24T02:43:39.075Z,63.79
2016-08-24T02:44:39.092Z,64.18
2016-08-24T02:45:39.119Z,64.15
2016-08-24T02:46:38.435Z,64.05
2016-08-24T02:47:38.457Z,64.63
2016-08-24T02:48:38.502Z,64.34
2016-08-24T02:49:39.275Z,65.3
2016-08-24T02:50:38.533Z,64.92
2016-08-24T02:51:39.275Z,64.43
2016-08-24T02:52:38.586Z,64.34
2016-08-24T02:53:39.319Z,64.53
2016-08-24T02:54:38.638Z,64.63
2016-08-24T02:55:39.375Z,64.43
2016-08-24T02:56:39.422Z,64.92
2016-08-24T02:57:38.755Z,64.82
2016-08-24T02:58:38.752Z,64.73
2016-08-24T02:59:38.764Z,64.73
2016-08-24T03:00:39.500Z,64.43
2016-08-24T03:01:38.847Z,64.73
2016-08-24T03:02:38.840Z,64.34
2016-08-24T03:03:39.585Z,64.34
2016-08-24T03:04:39.632Z,64.92
2016-08-24T03:05:39.627Z,64.15
2016-08-24T03:06:38.942Z,64.05
2016-08-24T03:07:39.027Z,64.53
2016-08-24T03:08:39.025Z,64.89
2016-08-24T03:09:39.017Z,65.3
2016-08-24T03:10:39.043Z,64.92
2016-08-24T03:11:39.072Z,64.92
2016-08-24T03:12:39.119Z,64.79
2016-08-24T03:13:39.119Z,65.69
2016-08-24T03:14:39.853Z,65.5
2016-08-24T03:15:39.169Z,65.08
2016-08-24T03:16:39.202Z,65.4
2016-08-24T03:17:39.220Z,65.17
2016-08-24T03:18:39.246Z,65.27
2016-08-24T03:19:39.987Z,65.37
2016-08-24T03:20:39.308Z,65.2
2016-08-24T03:21:39.328Z,65.37
2016-08-24T03:22:39.346Z,65.27
2016-08-24T03:23:40.101Z,65.17
2016-08-24T03:24:40.107Z,65.27
2016-08-24T03:25:40.133Z,65.46
2016-08-24T03:26:40.157Z,66.04
2016-08-24T03:27:39.494Z,65.66
2016-08-24T03:28:39.501Z,65.66
2016-08-24T03:29:40.231Z,65.66
2016-08-24T03:30:39.553Z,65.56
2016-08-24T03:31:39.577Z,65.46
2016-08-24T03:32:40.304Z,66.42
2016-08-24T03:33:40.334Z,66.52
2016-08-24T03:34:39.648Z,65.37
2016-08-24T03:35:40.380Z,65.94
2016-08-24T03:36:40.409Z,65.75
2016-08-24T03:37:39.723Z,65.84
2016-08-24T03:38:40.456Z,65.75
2016-08-24T03:39:40.484Z,65.75
2016-08-24T03:40:40.508Z,66.42
2016-08-24T03:41:39.822Z,66.23
2016-08-24T03:42:40.609Z,66.14
2016-08-24T03:43:40.598Z,66.23
2016-08-24T03:44:39.898Z,66.42
2016-08-24T03:45:40.633Z,66.91
2016-08-24T03:46:39.946Z,66.23
2016-08-24T03:47:39.972Z,66.42
2016-08-24T03:48:39.999Z,66.42
2016-08-24T03:49:40.736Z,66.14
2016-08-24T03:50:40.763Z,66.33
2016-08-24T03:51:40.083Z,66.23
2016-08-24T03:52:40.100Z,66.14
2016-08-24T03:53:40.126Z,66.61
2016-08-24T03:54:40.148Z,66.49
2016-08-24T03:55:40.881Z,67.07
2016-08-24T03:56:40.194Z,66.97
2016-08-24T03:57:40.220Z,67.07
2016-08-24T03:58:40.957Z,67.16
2016-08-24T03:59:40.271Z,67.25
2016-08-24T04:00:40.309Z,67.54
2016-08-24T04:01:40.321Z,66.49
2016-08-24T04:02:40.346Z,66.68
2016-08-24T04:03:41.080Z,66.68
2016-08-24T04:04:41.104Z,66.58
2016-08-24T04:05:40.419Z,66.68
2016-08-24T04:06:40.443Z,66.87
2016-08-24T04:07:40.469Z,66.49
2016-08-24T04:08:41.202Z,67.16
2016-08-24T04:09:40.517Z,67.07
2016-08-24T04:10:41.252Z,66.77
2016-08-24T04:11:41.279Z,66.87
2016-08-24T04:12:40.604Z,66.68
2016-08-24T04:13:41.346Z,66.87
2016-08-24T04:14:41.354Z,66.87
2016-08-24T04:15:41.388Z,67.25
2016-08-24T04:16:40.689Z,66.97
2016-08-24T04:17:40.714Z,67.07
2016-08-24T04:18:40.743Z,66.68
2016-08-24T04:19:41.475Z,66.49
2016-08-24T04:20:42.229Z,66.3
2016-08-24T04:21:41.709Z,66.87
2016-08-24T04:22:40.900Z,66.97
2016-08-24T04:23:56.054Z,67.16
2016-08-24T04:24:41.794Z,67.45
2016-08-24T04:25:41.881Z,66.77
2016-08-24T04:26:41.646Z,67.22
2016-08-24T04:27:41.669Z,67.25
2016-08-24T04:28:41.789Z,67.25
2016-08-24T04:29:41.010Z,66.87
2016-08-24T04:30:41.037Z,67.45
2016-08-24T04:31:41.771Z,66.87
2016-08-24T04:32:41.795Z,66.97
2016-08-24T04:33:41.821Z,67.35
2016-08-24T04:34:41.133Z,67.64
2016-08-24T04:35:41.159Z,67.54
2016-08-24T04:36:41.895Z,67.35
2016-08-24T04:37:41.209Z,67.25
2016-08-24T04:38:41.944Z,67.35
2016-08-24T04:39:41.261Z,67.25
2016-08-24T04:40:41.288Z,67.54
2016-08-24T04:41:42.021Z,67.07
2016-08-24T04:42:42.093Z,67.45
2016-08-24T04:43:42.065Z,67.35
2016-08-24T04:44:41.380Z,66.77
2016-08-24T04:45:42.115Z,66.97
2016-08-24T04:46:41.447Z,67.07
2016-08-24T04:47:42.167Z,67.45
2016-08-24T04:48:41.482Z,67.25
2016-08-24T04:49:42.217Z,67.25
2016-08-24T04:50:42.243Z,67.35
2016-08-24T04:51:41.554Z,67.16
2016-08-24T04:52:42.293Z,67.07
2016-08-24T04:53:41.605Z,67.45
2016-08-24T04:54:41.628Z,67.54
2016-08-24T04:55:41.673Z,67.25
2016-08-24T04:56:42.396Z,67.25
2016-08-24T04:57:41.703Z,67.64
2016-08-24T04:58:41.728Z,67.54
2016-08-24T04:59:42.463Z,67.93
2016-08-24T05:00:41.776Z,67.64
2016-08-24T05:01:42.518Z,68.31
2016-08-24T05:02:41.840Z,67.83
2016-08-24T05:03:41.851Z,67.93
2016-08-24T05:04:41.892Z,68.02
2016-08-24T05:05:41.899Z,67.83
2016-08-24T05:06:42.635Z,67.74
2016-08-24T05:07:41.954Z,67.93
2016-08-24T05:08:41.974Z,67.45
2016-08-24T05:09:42.003Z,67.74
2016-08-24T05:10:42.733Z,67.93
2016-08-24T05:11:42.758Z,67.54
2016-08-24T05:12:42.073Z,67.74
2016-08-24T05:13:42.102Z,67.25
2016-08-24T05:14:42.124Z,67
2016-08-24T05:15:42.858Z,67.35
2016-08-24T05:16:42.171Z,67.48
2016-08-24T05:17:42.912Z,67.29
2016-08-24T05:18:42.231Z,67.58
2016-08-24T05:19:42.959Z,68.15
2016-08-24T05:20:42.270Z,67.68
2016-08-24T05:21:43.304Z,67.86
2016-08-24T05:22:42.320Z,67.48
2016-08-24T05:23:43.062Z,67.48
2016-08-24T05:24:43.085Z,67.54
2016-08-24T05:25:43.105Z,67.29
2016-08-24T05:26:42.420Z,67.58
2016-08-24T05:27:43.152Z,67.86
2016-08-24T05:28:42.472Z,67.77
2016-08-24T05:29:43.203Z,67.38
2016-08-24T05:30:43.228Z,67.96
2016-08-24T05:31:42.542Z,68.15
2016-08-24T05:32:43.279Z,67.86
2016-08-24T05:33:42.649Z,67.68
2016-08-24T05:34:43.326Z,68.15
2016-08-24T05:35:42.641Z,67.96
2016-08-24T05:36:42.664Z,67.86
2016-08-24T05:37:43.400Z,67.68
2016-08-24T05:38:42.716Z,67.58
2016-08-24T05:39:43.457Z,67.96
2016-08-24T05:40:42.766Z,67.77
2016-08-24T05:41:42.814Z,68.15
2016-08-24T05:42:42.822Z,67.68
2016-08-24T05:43:42.840Z,68.44
2016-08-24T05:44:42.865Z,68.25
2016-08-24T05:45:42.891Z,68.35
2016-08-24T05:46:43.624Z,67.68
2016-08-24T05:47:43.653Z,67.96
2016-08-24T05:48:43.675Z,67.58
2016-08-24T05:49:42.990Z,67.77
2016-08-24T05:50:43.038Z,67.96
2016-08-24T05:51:43.038Z,67.48
2016-08-24T05:52:43.064Z,67.38
2016-08-24T05:53:43.878Z,68.15
2016-08-24T05:54:43.112Z,68.15
2016-08-24T05:55:43.139Z,67.86
2016-08-24T05:56:43.164Z,67.77
2016-08-24T05:57:43.186Z,68.57
2016-08-24T05:58:43.921Z,67.71
2016-08-24T05:59:43.949Z,68.48
2016-08-24T06:00:43.986Z,68.38
2016-08-24T06:01:43.996Z,68.09
2016-08-24T06:02:44.033Z,68.38
2016-08-24T06:03:43.350Z,68.29
2016-08-24T06:04:43.371Z,68.19
2016-08-24T06:05:43.396Z,67.74
2016-08-24T06:06:44.121Z,67.74
2016-08-24T06:07:43.439Z,67.55
2016-08-24T06:08:44.174Z,67.26
2016-08-24T06:09:44.204Z,67.83
2016-08-24T06:10:43.527Z,67.93
2016-08-24T06:11:44.252Z,67.26
2016-08-24T06:12:43.631Z,66.78
2016-08-24T06:13:44.306Z,67.45
2016-08-24T06:14:44.327Z,67.07
2016-08-24T06:15:43.644Z,66.78
2016-08-24T06:16:43.665Z,67.26
2016-08-24T06:17:43.694Z,67.39
2016-08-24T06:18:44.430Z,66.91
2016-08-24T06:19:44.454Z,66.52
2016-08-24T06:20:44.481Z,66.81
2016-08-24T06:21:43.903Z,66.81
2016-08-24T06:22:43.820Z,66.42
2016-08-24T06:23:43.847Z,66.62
2016-08-24T06:24:44.583Z,66.04
2016-08-24T06:25:44.609Z,65.66
2016-08-24T06:26:43.945Z,65.5
2016-08-24T06:27:43.954Z,65.88
2016-08-24T06:28:44.687Z,65.5
2016-08-24T06:29:44.003Z,64.82
2016-08-24T06:30:44.028Z,64.82
2016-08-24T06:31:44.053Z,65.5
2016-08-24T06:32:44.080Z,65.4
2016-08-24T06:33:44.107Z,64.92
2016-08-24T06:34:44.162Z,64.82
2016-08-24T06:35:44.167Z,64.15
2016-08-24T06:36:44.910Z,64.18
2016-08-24T06:37:44.209Z,63.89
2016-08-24T06:38:44.960Z,63.6
2016-08-24T06:39:44.972Z,63.6
2016-08-24T06:40:44.288Z,64.28
2016-08-24T06:41:44.316Z,64.28
2016-08-24T06:42:45.055Z,63.79
2016-08-24T06:43:44.368Z,63.12
2016-08-24T06:44:44.397Z,63.31
2016-08-24T06:45:45.133Z,63.31
2016-08-24T06:46:45.159Z,63.79
2016-08-24T06:47:44.473Z,63.06
2016-08-24T06:48:44.501Z,63.44
2016-08-24T06:49:44.529Z,63.24
2016-08-24T06:50:45.264Z,63.73
2016-08-24T06:51:44.582Z,62.66
2016-08-24T06:52:44.611Z,62.76
2016-08-24T06:53:44.641Z,62.57
2016-08-24T06:54:45.370Z,61.9
2016-08-24T06:55:45.397Z,61.8
2016-08-24T06:56:44.718Z,62.18
2016-08-24T06:57:45.459Z,62.02
2016-08-24T06:58:45.479Z,62.22
2016-08-24T06:59:44.794Z,61.93
2016-08-24T07:00:44.830Z,61.74
2016-08-24T07:01:44.849Z,61.35
2016-08-24T07:02:45.585Z,61.35
2016-08-24T07:03:44.903Z,61.06
2016-08-24T07:04:44.927Z,60.71
2016-08-24T07:05:44.957Z,61.09
2016-08-24T07:06:45.692Z,61.09
2016-08-24T07:07:45.008Z,60.89
2016-08-24T07:08:45.044Z,60.8
2016-08-24T07:09:45.068Z,60.31
2016-08-24T07:10:45.801Z,59.64
2016-08-24T07:11:45.833Z,59.55
2016-08-24T07:12:45.856Z,59.67
2016-08-24T07:13:45.174Z,59
2016-08-24T07:14:45.201Z,59
2016-08-24T07:15:45.228Z,59
2016-08-24T07:16:45.260Z,59
2016-08-24T07:17:45.282Z,59
2016-08-24T07:18:46.023Z,59
2016-08-24T07:19:45.336Z,58.03
2016-08-24T07:20:46.075Z,59
2016-08-24T07:21:45.390Z,58.03
2016-08-24T07:22:45.417Z,57.06
2016-08-24T07:23:45.445Z,57.16
2016-08-24T07:24:45.477Z,57.54
2016-08-24T07:25:45.503Z,56.71
2016-08-24T07:26:45.531Z,56.32
2016-08-24T07:27:46.268Z,57.09
2016-08-24T07:28:45.586Z,57.29
2016-08-24T07:29:45.611Z,56.41
2016-08-24T07:30:46.357Z,56.32
2016-08-24T07:31:45.667Z,56.35
2016-08-24T07:32:45.694Z,56.63
2016-08-24T07:33:46.435Z,56.63
2016-08-24T07:34:45.750Z,56.54
2016-08-24T07:35:45.780Z,55.96
2016-08-24T07:36:46.518Z,55.96
2016-08-24T07:37:46.548Z,55.87
2016-08-24T07:38:45.863Z,55.7
2016-08-24T07:39:45.891Z,55.99
2016-08-24T07:40:45.933Z,56.28
2016-08-24T07:41:45.945Z,56.47
2016-08-24T07:42:45.973Z,55.51
2016-08-24T07:43:46.001Z,55.7
2016-08-24T07:44:46.036Z,55.11
2016-08-24T07:45:46.769Z,54.17
2016-08-24T07:46:46.797Z,54.47
2016-08-24T07:47:46.833Z,54.85
2016-08-24T07:48:46.869Z,54.37
2016-08-24T07:49:46.883Z,53.31
2016-08-24T07:50:46.912Z,53.5
2016-08-24T07:51:46.235Z,52.82
2016-08-24T07:52:46.256Z,52.44
2016-08-24T07:53:46.285Z,52.92
2016-08-24T07:54:47.024Z,52.63
2016-08-24T07:55:46.342Z,53.04
2016-08-24T07:56:47.080Z,53.04
2016-08-24T07:57:46.413Z,52.66
2016-08-24T07:58:47.137Z,52.36
2016-08-24T07:59:46.456Z,52.27
2016-08-24T08:00:47.198Z,50.92
2016-08-24T08:01:47.223Z,50.62
2016-08-24T08:02:46.541Z,50.14
2016-08-24T08:03:46.572Z,49.95
2016-08-24T08:04:47.332Z,51.01
2016-08-24T08:05:46.630Z,51.32
2016-08-24T08:06:46.655Z,51.52
2016-08-24T08:07:47.398Z,50.35
2016-08-24T08:08:46.714Z,50.16
2016-08-24T08:09:47.460Z,49.87
2016-08-24T08:10:46.773Z,49.1
2016-08-24T08:11:46.801Z,48.64
2016-08-24T08:12:47.548Z,48.64
2016-08-24T08:13:46.865Z,48.64
2016-08-24T08:14:46.888Z,48.35
2016-08-24T08:15:47.626Z,48.35
2016-08-24T08:16:46.945Z,48.06
2016-08-24T08:17:46.997Z,47.67
2016-08-24T08:18:47.004Z,47.96
2016-08-24T08:19:47.762Z,48.25
2016-08-24T08:20:47.796Z,48.18
2016-08-24T08:21:47.808Z,47.89
2016-08-24T08:22:47.122Z,48.37
2016-08-24T08:23:47.867Z,48.47
2016-08-24T08:24:47.181Z,47.4
2016-08-24T08:25:47.211Z,47.62
2016-08-24T08:26:47.240Z,46.45
2016-08-24T08:27:47.981Z,46.07
2016-08-24T08:28:47.311Z,46.26
2016-08-24T08:29:47.346Z,46.55
2016-08-24T08:30:47.373Z,45.87
2016-08-24T08:31:47.387Z,44.9
2016-08-24T08:32:47.417Z,45.1
2016-08-24T08:33:47.449Z,44.44
2016-08-24T08:34:47.475Z,44.73
2016-08-24T08:35:47.507Z,44.83
2016-08-24T08:36:47.542Z,44.92
2016-08-24T08:37:48.290Z,45.31
2016-08-24T08:38:48.307Z,44.34
2016-08-24T08:39:48.336Z,44.64
2016-08-24T08:40:48.366Z,44.44
2016-08-24T08:41:47.686Z,42.11
2016-08-24T08:42:48.426Z,43.76
2016-08-24T08:43:48.459Z,44.44
2016-08-24T08:44:48.505Z,42.69
2016-08-24T08:45:48.522Z,42.89
2016-08-24T08:46:47.841Z,43.47
2016-08-24T08:47:48.590Z,42.99
2016-08-24T08:48:47.906Z,42.79
2016-08-24T08:49:47.923Z,42.79
2016-08-24T08:50:48.665Z,43.37
2016-08-24T08:51:47.986Z,41.82
2016-08-24T08:52:48.735Z,43.2
2016-08-24T08:53:48.771Z,43.2
2016-08-24T08:54:48.084Z,42.61
2016-08-24T08:55:48.817Z,42.61
2016-08-24T08:56:48.136Z,43.1
2016-08-24T08:57:48.167Z,42.61
2016-08-24T08:58:48.198Z,42.13
2016-08-24T08:59:48.232Z,42.81
2016-08-24T09:00:48.967Z,41.26
2016-08-24T09:01:48.291Z,41.36
2016-08-24T09:02:49.026Z,41.94
2016-08-24T09:03:49.058Z,41.77
2016-08-24T09:04:48.377Z,42.25
2016-08-24T09:05:49.117Z,42.25
2016-08-24T09:06:49.150Z,42.23
2016-08-24T09:07:48.467Z,41.18
2016-08-24T09:08:48.499Z,41.47
2016-08-24T09:09:48.528Z,41.67
2016-08-24T09:10:48.560Z,41.08
2016-08-24T09:11:48.611Z,41.38
2016-08-24T09:12:48.619Z,42.25
2016-08-24T09:13:49.415Z,42.35
2016-08-24T09:14:49.394Z,42.08
2016-08-24T09:15:48.712Z,41.3
2016-08-24T09:16:48.743Z,42.18
2016-08-24T09:17:49.483Z,41.78
2016-08-24T09:18:49.531Z,41.01
2016-08-24T09:19:49.546Z,41.01
2016-08-24T09:20:48.867Z,41.1
2016-08-24T09:21:49.610Z,40.52
2016-08-24T09:22:48.927Z,40.81
2016-08-24T09:23:48.958Z,40.62
2016-08-24T09:24:48.988Z,40.42
2016-08-24T09:25:49.021Z,41.1
2016-08-24T09:26:49.051Z,40.73
2016-08-24T09:27:49.799Z,39.94
2016-08-24T09:28:49.821Z,40.33
2016-08-24T09:29:49.144Z,41.03
2016-08-24T09:30:49.171Z,40.44
2016-08-24T09:31:49.203Z,40.93
2016-08-24T09:32:49.943Z,40.64
2016-08-24T09:33:49.265Z,40.83
2016-08-24T09:34:49.313Z,41.51
2016-08-24T09:35:49.324Z,41.22
2016-08-24T09:36:49.355Z,40.64
2016-08-24T09:37:50.103Z,40.08
2016-08-24T09:38:49.420Z,40.17
2016-08-24T09:39:50.160Z,40.66
2016-08-24T09:40:50.190Z,40.75
2016-08-24T09:41:50.243Z,40.47
2016-08-24T09:42:49.542Z,41.24
2016-08-24T09:43:50.284Z,40.56
2016-08-24T09:44:49.607Z,39.78
2016-08-24T09:45:49.635Z,39.31
2016-08-24T09:46:50.381Z,39.31
2016-08-24T09:47:50.413Z,39.51
2016-08-24T09:48:49.735Z,38.83
2016-08-24T09:49:49.762Z,38.54
2016-08-24T09:50:50.503Z,38.93
2016-08-24T09:51:49.837Z,40
2016-08-24T09:52:50.561Z,38.83
2016-08-24T09:53:49.886Z,39.43
2016-08-24T09:54:49.918Z,38.15
2016-08-24T09:55:49.948Z,37.46
2016-08-24T09:56:50.691Z,37.95
2016-08-24T09:57:50.012Z,35.71
2016-08-24T09:58:50.045Z,37.46
2016-08-24T09:59:50.786Z,36.59
2016-08-24T10:00:50.817Z,37.08
2016-08-24T10:01:50.847Z,35.81
2016-08-24T10:02:50.169Z,36.2
2016-08-24T10:03:50.200Z,36.8
2016-08-24T10:04:50.940Z,37.39
2016-08-24T10:05:50.267Z,35.73
2016-08-24T10:06:50.295Z,36.71
2016-08-24T10:07:51.040Z,37.19
2016-08-24T10:08:50.372Z,36.02
2016-08-24T10:09:50.389Z,36.32
2016-08-24T10:10:50.421Z,35.83
2016-08-24T10:11:50.454Z,35.46
2016-08-24T10:12:50.489Z,36.51
2016-08-24T10:13:50.513Z,37.31
2016-08-24T10:14:50.550Z,37.12
2016-08-24T10:15:51.290Z,36.92
2016-08-24T10:16:50.611Z,36.33
2016-08-24T10:17:50.650Z,36.53
2016-08-24T10:18:50.675Z,36.63
2016-08-24T10:19:50.706Z,37.21
2016-08-24T10:20:50.739Z,37.13
2016-08-24T10:21:50.770Z,36.45
2016-08-24T10:22:50.802Z,37.43
2016-08-24T10:23:50.834Z,36.16
2016-08-24T10:24:50.873Z,36.25
2016-08-24T10:25:50.895Z,36.45
2016-08-24T10:26:51.642Z,36.65
2016-08-24T10:27:50.967Z,34.5
2016-08-24T10:28:51.701Z,35.86
2016-08-24T10:29:51.024Z,36.16
2016-08-24T10:30:51.056Z,36.55
2016-08-24T10:31:51.800Z,36.16
2016-08-24T10:32:51.843Z,36.16
2016-08-24T10:33:51.862Z,35.47
2016-08-24T10:34:51.894Z,36.55
2016-08-24T10:35:51.216Z,35.28
2016-08-24T10:36:51.245Z,35.77
2016-08-24T10:37:51.279Z,35.57
2016-08-24T10:38:52.022Z,35.67
2016-08-24T10:39:51.341Z,35.28
2016-08-24T10:40:51.374Z,35.1
2016-08-24T10:41:51.409Z,35.47
2016-08-24T10:42:51.451Z,34.91
2016-08-24T10:43:52.181Z,35.38
2016-08-24T10:44:51.509Z,35.47
2016-08-24T10:45:52.243Z,35.18
2016-08-24T10:46:52.283Z,35.57
2016-08-24T10:47:51.599Z,35.38
2016-08-24T10:48:51.632Z,35.39
2016-08-24T10:49:51.664Z,36.57
2016-08-24T10:50:52.409Z,33.43
2016-08-24T10:51:51.729Z,34.01
2016-08-24T10:52:52.469Z,35.08
2016-08-24T10:53:52.504Z,36.25
2016-08-24T10:54:51.825Z,36.06
2016-08-24T10:55:51.860Z,35.86
2016-08-24T10:56:51.889Z,36.35
2016-08-24T10:57:51.934Z,35.96
2016-08-24T10:58:52.668Z,36.25
2016-08-24T10:59:51.984Z,35.47
2016-08-24T11:00:52.728Z,35.49
2016-08-24T11:01:52.052Z,35.69
2016-08-24T11:02:52.080Z,35.78
2016-08-24T11:03:52.123Z,35.2
2016-08-24T11:04:52.860Z,36.06
2016-08-24T11:05:52.177Z,34.42
2016-08-24T11:06:52.209Z,35
2016-08-24T11:07:52.255Z,34.81
2016-08-24T11:08:52.983Z,35.39
2016-08-24T11:09:53.013Z,34.32
2016-08-24T11:10:53.051Z,35.39
2016-08-24T11:11:52.379Z,35.69
2016-08-24T11:12:52.408Z,36.27
2016-08-24T11:13:52.432Z,34.81
2016-08-24T11:14:52.470Z,34.91
2016-08-24T11:15:52.495Z,35.49
2016-08-24T11:16:52.530Z,34.53
2016-08-24T11:17:53.283Z,34.32
2016-08-24T11:18:52.596Z,35.49
2016-08-24T11:19:53.384Z,35.31
2016-08-24T11:20:52.671Z,35.31
2016-08-24T11:21:53.404Z,34.83
2016-08-24T11:22:53.456Z,35.9
2016-08-24T11:23:52.760Z,34.44
2016-08-24T11:24:52.790Z,34.91
2016-08-24T11:25:52.823Z,35
2016-08-24T11:26:53.564Z,36.96
2016-08-24T11:27:52.887Z,35.78
2016-08-24T11:28:52.917Z,35.3
2016-08-24T11:29:53.661Z,35.69
2016-08-24T11:30:52.982Z,35.71
2016-08-24T11:31:53.017Z,36.57
2016-08-24T11:32:53.058Z,35.22
2016-08-24T11:33:53.081Z,35.02
2016-08-24T11:34:53.114Z,37.54
2016-08-24T11:35:53.146Z,37.05
2016-08-24T11:36:53.179Z,36.29
2016-08-24T11:37:53.920Z,35.51
2016-08-24T11:38:53.243Z,35.22
2016-08-24T11:39:53.997Z,35.41
2016-08-24T11:40:53.307Z,35.41
2016-08-24T11:41:54.049Z,36.19
2016-08-24T11:42:54.099Z,35.61
2016-08-24T11:43:53.405Z,34.14
2016-08-24T11:44:54.144Z,34.73
2016-08-24T11:45:54.184Z,34.44
2016-08-24T11:46:54.215Z,34.84
2016-08-24T11:47:53.541Z,34.63
2016-08-24T11:48:54.275Z,35.61
2016-08-24T11:49:53.599Z,34.83
2016-08-24T11:50:53.632Z,34.06
2016-08-24T11:51:53.664Z,34.14
2016-08-24T11:52:54.403Z,34.24
2016-08-24T11:53:54.465Z,34.55
2016-08-24T11:54:53.761Z,33.87
2016-08-24T11:55:54.501Z,32.89
2016-08-24T11:56:54.028Z,33.95
2016-08-24T11:57:53.861Z,33.67
2016-08-24T11:58:54.602Z,33.67
2016-08-24T11:59:53.930Z,34.05
2016-08-24T12:00:54.666Z,34.52
2016-08-24T12:01:54.698Z,34.63
2016-08-24T12:02:54.038Z,35.02
2016-08-24T12:03:54.059Z,35.41
2016-08-24T12:04:54.085Z,34.83
2016-08-24T12:05:54.827Z,35.02
2016-08-24T12:06:54.152Z,35.31
2016-08-24T12:07:54.181Z,34.16
2016-08-24T12:08:54.214Z,32.97
2016-08-24T12:09:54.249Z,34.05
2016-08-24T12:10:54.281Z,34.14
2016-08-24T12:11:55.025Z,33.95
2016-08-24T12:12:55.054Z,34.34
2016-08-24T12:13:54.378Z,34.05
2016-08-24T12:14:54.410Z,34.83
2016-08-24T12:15:54.443Z,34.63
2016-08-24T12:16:54.477Z,33.26
2016-08-24T12:17:54.507Z,33.56
2016-08-24T12:18:54.539Z,34.94
2016-08-24T12:19:55.283Z,35.24
2016-08-24T12:20:54.612Z,33.87
2016-08-24T12:21:54.655Z,34.26
2016-08-24T12:22:54.677Z,34.45
2016-08-24T12:23:54.703Z,34.65
2016-08-24T12:24:55.445Z,33.48
2016-08-24T12:25:55.477Z,32.6
2016-08-24T12:26:55.512Z,33.18
2016-08-24T12:27:54.832Z,34.26
2016-08-24T12:28:55.579Z,34.06
2016-08-24T12:29:55.610Z,33.48
2016-08-24T12:30:55.640Z,32.4
2016-08-24T12:31:54.963Z,33.18
2016-08-24T12:32:55.707Z,33.87
2016-08-24T12:33:55.029Z,33.87
2016-08-24T12:34:55.772Z,33.67
2016-08-24T12:35:55.807Z,33.58
2016-08-24T12:36:55.861Z,34.06
2016-08-24T12:37:55.164Z,33.98
2016-08-24T12:38:55.193Z,33.77
2016-08-24T12:39:55.935Z,34.45
2016-08-24T12:40:55.256Z,35.24
2016-08-24T12:41:55.291Z,34.45
2016-08-24T12:42:56.033Z,33.67
2016-08-24T12:43:55.355Z,34.38
2016-08-24T12:44:56.101Z,36.21
2016-08-24T12:45:56.131Z,35.45
2016-08-24T12:46:55.471Z,35.25
2016-08-24T12:47:56.199Z,34.96
2016-08-24T12:48:55.520Z,37.79
2016-08-24T12:49:55.565Z,36.41
2016-08-24T12:50:56.293Z,35.72
2016-08-24T12:51:55.617Z,34.57
2016-08-24T12:52:56.362Z,33.98
2016-08-24T12:53:55.681Z,36.23
2016-08-24T12:54:55.735Z,34.38
2016-08-24T12:55:56.462Z,34.08